createdAt,value
2018-04-02T00:00:57.142Z,1.60
2018-04-02T00:03:24.751Z,1.70
2018-04-02T00:05:52.377Z,1.70
2018-04-02T00:08:20.018Z,1.70
2018-04-02T00:10:47.619Z,1.70
2018-04-02T00:13:15.201Z,1.70
2018-04-02T00:15:43.573Z,1.80
2018-04-02T00:18:11.191Z,1.80
2018-04-02T00:20:38.800Z,1.70
2018-04-02T00:23:07.183Z,1.70
2018-04-02T00:25:35.553Z,1.70
2018-04-02T00:28:03.901Z,1.70
2018-04-02T00:30:31.535Z,1.70
2018-04-02T00:32:59.168Z,1.70
2018-04-02T00:35:26.815Z,1.70
2018-04-02T00:37:55.176Z,1.60
2018-04-02T00:40:22.757Z,1.60
2018-04-02T00:42:51.159Z,1.50
2018-04-02T00:45:18.769Z,1.50
2018-04-02T00:47:46.377Z,1.40
2018-04-02T00:50:13.990Z,1.40
2018-04-02T00:52:42.203Z,1.40
2018-04-02T00:55:09.806Z,1.30
2018-04-02T00:57:37.409Z,1.30
2018-04-02T01:00:05.758Z,1.30
2018-04-02T01:02:33.395Z,1.30
2018-04-02T01:05:00.988Z,1.30
2018-04-02T01:07:28.587Z,1.30
2018-04-02T01:09:56.200Z,1.30
2018-04-02T01:12:23.808Z,1.30
2018-04-02T01:14:51.408Z,1.20
2018-04-02T01:17:18.985Z,1.20
2018-04-02T01:19:46.651Z,1.20
2018-04-02T01:22:15.010Z,1.10
2018-04-02T01:24:42.624Z,1.10
2018-04-02T01:27:10.208Z,1.10
2018-04-02T01:29:37.835Z,1.10
2018-04-02T01:32:05.428Z,1.10
2018-04-02T01:34:33.037Z,1.00
2018-04-02T01:37:01.405Z,0.90
2018-04-02T01:39:29.028Z,0.90
2018-04-02T01:41:56.640Z,0.80
2018-04-02T01:44:25.012Z,0.70
2018-04-02T01:46:53.397Z,0.70
2018-04-02T01:49:21.769Z,0.60
2018-04-02T01:51:49.373Z,0.60
2018-04-02T01:54:16.968Z,0.50
2018-04-02T01:56:44.587Z,0.60
2018-04-02T01:59:12.188Z,0.50
2018-04-02T02:01:39.791Z,0.40
2018-04-02T02:04:07.387Z,0.40
2018-04-02T02:06:35.054Z,0.40
2018-04-02T02:09:02.702Z,0.30
2018-04-02T02:11:30.528Z,0.20
2018-04-02T02:13:58.152Z,0.20
2018-04-02T02:16:26.555Z,0.20
2018-04-02T02:18:54.948Z,0.20
2018-04-02T02:21:22.526Z,0.20
2018-04-02T02:23:50.152Z,0.10
2018-04-02T02:26:18.534Z,0.10
2018-04-02T02:28:46.928Z,0.00
2018-04-02T02:31:14.540Z,0.00
2018-04-02T02:33:42.189Z,0.00
2018-04-02T02:36:09.794Z,0.00
2018-04-02T02:38:38.164Z,0.00
2018-04-02T02:41:06.556Z,0.00
2018-04-02T02:43:34.904Z,0.00
2018-04-02T02:46:02.541Z,-0.10
2018-04-02T02:48:30.130Z,-0.10
2018-04-02T02:50:57.758Z,-0.10
2018-04-02T02:53:25.344Z,-0.10
2018-04-02T02:55:53.013Z,-0.10
2018-04-02T02:58:21.410Z,-0.10
2018-04-02T03:00:49.796Z,-0.20
2018-04-02T03:03:17.397Z,-0.20
2018-04-02T03:05:44.994Z,-0.20
2018-04-02T03:08:13.385Z,-0.20
2018-04-02T03:10:41.007Z,-0.20
2018-04-02T03:13:08.626Z,-0.20
2018-04-02T03:15:36.227Z,-0.30
2018-04-02T03:18:03.851Z,-0.30
2018-04-02T03:20:31.459Z,-0.30
2018-04-02T03:22:59.133Z,-0.30
2018-04-02T03:25:27.503Z,-0.30
2018-04-02T03:27:55.087Z,-0.30
2018-04-02T03:30:23.466Z,-0.40
2018-04-02T03:32:51.841Z,-0.40
2018-04-02T03:35:20.238Z,-0.40
2018-04-02T03:37:47.825Z,-0.40
2018-04-02T03:40:15.463Z,-0.40
2018-04-02T03:42:43.066Z,-0.50
2018-04-02T03:45:10.695Z,-0.50
2018-04-02T03:47:38.273Z,-0.60
2018-04-02T03:50:05.870Z,-0.50
2018-04-02T03:52:34.255Z,-0.60
2018-04-02T03:55:02.612Z,-0.60
2018-04-02T03:57:30.227Z,-0.60
2018-04-02T03:59:57.821Z,-0.50
2018-04-02T04:02:25.420Z,-0.60
2018-04-02T04:04:53.031Z,-0.60
2018-04-02T04:07:20.637Z,-0.60
2018-04-02T04:09:48.242Z,-0.70
2018-04-02T04:12:15.880Z,-0.70
2018-04-02T04:14:43.479Z,-0.80
2018-04-02T04:17:11.079Z,-0.80
2018-04-02T04:19:38.719Z,-0.90
2018-04-02T04:22:06.321Z,-0.90
2018-04-02T04:24:33.963Z,-0.90
2018-04-02T04:27:01.555Z,-1.00
2018-04-02T04:29:29.155Z,-1.00
2018-04-02T04:31:57.534Z,-1.00
2018-04-02T04:34:25.167Z,-1.00
2018-04-02T04:36:52.772Z,-1.00
2018-04-02T04:39:21.143Z,-1.10
2018-04-02T04:41:49.521Z,-1.00
2018-04-02T04:44:17.871Z,-1.00
2018-04-02T04:46:45.468Z,-1.10
2018-04-02T04:49:13.820Z,-1.10
2018-04-02T04:51:41.429Z,-1.10
2018-04-02T04:54:09.005Z,-1.10
2018-04-02T04:56:36.636Z,-1.10
2018-04-02T04:59:04.224Z,-1.10
2018-04-02T05:01:31.804Z,-1.10
2018-04-02T05:03:59.432Z,-1.20
2018-04-02T05:06:27.013Z,-1.10
2018-04-02T05:08:54.651Z,-1.10
2018-04-02T05:11:22.231Z,-1.10
2018-04-02T05:13:49.839Z,-1.10
2018-04-02T05:16:18.184Z,-1.10
2018-04-02T05:18:45.849Z,-1.10
2018-04-02T05:21:13.449Z,-1.10
2018-04-02T05:23:41.079Z,-1.00
2018-04-02T05:26:08.726Z,-0.90
2018-04-02T05:28:37.103Z,-0.80
2018-04-02T05:31:04.702Z,-0.80
2018-04-02T05:33:32.327Z,-0.70
2018-04-02T05:35:59.954Z,-0.60
2018-04-02T05:38:27.557Z,-0.50
2018-04-02T05:40:55.176Z,-0.50
2018-04-02T05:43:23.361Z,-0.50
2018-04-02T05:45:51.772Z,-0.40
2018-04-02T05:48:19.366Z,-0.40
2018-04-02T05:50:46.966Z,-0.30
2018-04-02T05:53:14.558Z,-0.30
2018-04-02T05:55:42.950Z,-0.20
2018-04-02T05:58:11.317Z,-0.10
2018-04-02T06:00:39.685Z,-0.10
2018-04-02T06:03:08.068Z,0.00
2018-04-02T06:05:36.414Z,0.10
2018-04-02T06:08:04.022Z,0.00
2018-04-02T06:10:31.609Z,0.10
2018-04-02T06:12:59.227Z,0.20
2018-04-02T06:15:27.572Z,0.30
2018-04-02T06:17:55.206Z,0.30
2018-04-02T06:20:22.784Z,0.30
2018-04-02T06:22:50.396Z,0.40
2018-04-02T06:25:18.764Z,0.60
2018-04-02T06:27:47.118Z,0.70
2018-04-02T06:30:14.721Z,0.70
2018-04-02T06:32:42.312Z,0.80
2018-04-02T06:35:09.919Z,0.90
2018-04-02T06:37:38.264Z,1.00
2018-04-02T06:40:06.625Z,1.10
2018-04-02T06:42:34.200Z,1.10
2018-04-02T06:45:01.797Z,1.20
2018-04-02T06:47:30.207Z,1.20
2018-04-02T06:49:57.812Z,1.20
2018-04-02T06:52:25.415Z,1.30
2018-04-02T06:54:53.015Z,1.40
2018-04-02T06:57:20.624Z,1.50
2018-04-02T06:59:48.963Z,1.70
2018-04-02T07:02:16.599Z,1.70
2018-04-02T07:04:44.203Z,1.80
2018-04-02T07:07:12.548Z,2.00
2018-04-02T07:09:40.259Z,1.90
2018-04-02T07:12:07.875Z,2.00
2018-04-02T07:14:36.121Z,2.10
2018-04-02T07:17:03.701Z,2.20
2018-04-02T07:19:32.069Z,2.20
2018-04-02T07:21:59.652Z,2.20
2018-04-02T07:24:27.293Z,2.40
2018-04-02T07:26:54.870Z,2.30
2018-04-02T07:29:22.485Z,2.20
2018-04-02T07:31:50.088Z,2.20
2018-04-02T07:34:19.175Z,2.30
2018-04-02T07:36:47.152Z,2.30
2018-04-02T07:39:15.889Z,2.50
2018-04-02T07:41:43.901Z,2.50
2018-04-02T07:44:12.611Z,2.60
2018-04-02T07:46:41.426Z,2.50
2018-04-02T07:49:09.425Z,2.50
2018-04-02T07:51:37.540Z,2.70
2018-04-02T07:54:06.291Z,2.60
2018-04-02T07:56:34.992Z,2.70
2018-04-02T07:59:03.115Z,2.70
2018-04-02T08:01:31.151Z,2.70
2018-04-02T08:03:59.161Z,2.70
2018-04-02T08:06:28.024Z,2.70
2018-04-02T08:08:56.827Z,2.70
2018-04-02T08:11:24.840Z,2.70
2018-04-02T08:13:52.889Z,2.70
2018-04-02T08:16:21.544Z,2.80
2018-04-02T08:18:49.441Z,2.70
2018-04-02T08:21:17.471Z,2.90
2018-04-02T08:23:45.446Z,3.30
2018-04-02T08:26:13.432Z,3.50
2018-04-02T08:28:41.472Z,3.40
2018-04-02T08:31:09.470Z,3.60
2018-04-02T08:33:37.551Z,3.80
2018-04-02T08:36:05.593Z,4.00
2018-04-02T08:38:33.429Z,4.00
2018-04-02T08:41:01.621Z,4.20
2018-04-02T08:43:29.672Z,4.30
2018-04-02T08:45:58.713Z,4.20
2018-04-02T08:48:26.684Z,4.50
2018-04-02T08:50:54.794Z,4.50
2018-04-02T08:53:22.809Z,4.60
2018-04-02T08:55:50.821Z,4.70
2018-04-02T08:58:19.439Z,4.80
2018-04-02T09:00:47.460Z,5.00
2018-04-02T09:03:16.271Z,5.10
2018-04-02T09:05:45.010Z,5.30
2018-04-02T09:08:13.110Z,5.30
2018-04-02T09:10:41.027Z,5.30
2018-04-02T09:13:09.688Z,5.60
2018-04-02T09:15:38.538Z,5.50
2018-04-02T09:18:06.501Z,5.50
2018-04-02T09:20:34.127Z,5.70
2018-04-02T09:23:01.680Z,5.80
2018-04-02T09:25:29.348Z,5.60
2018-04-02T09:27:56.937Z,5.80
2018-04-02T09:30:25.300Z,6.20
2018-04-02T09:32:53.662Z,6.40
2018-04-02T09:35:21.344Z,6.30
2018-04-02T09:37:49.707Z,6.40
2018-04-02T09:40:17.281Z,6.40
2018-04-02T09:42:45.660Z,6.00
2018-04-02T09:45:14.093Z,6.20
2018-04-02T09:47:41.748Z,6.20
2018-04-02T09:50:09.348Z,5.90
2018-04-02T09:52:37.716Z,6.70
2018-04-02T09:55:05.316Z,6.70
2018-04-02T09:57:32.888Z,7.00
2018-04-02T10:00:00.581Z,6.70
2018-04-02T10:02:28.173Z,6.60
2018-04-02T10:04:56.686Z,7.10
2018-04-02T10:07:24.203Z,7.10
2018-04-02T10:09:52.624Z,7.20
2018-04-02T10:12:20.187Z,7.20
2018-04-02T10:14:47.810Z,7.10
2018-04-02T10:17:16.146Z,7.40
2018-04-02T10:19:43.819Z,7.40
2018-04-02T10:22:11.425Z,7.50
2018-04-02T10:24:39.024Z,7.60
2018-04-02T10:27:06.632Z,7.70
2018-04-02T10:29:34.999Z,7.70
2018-04-02T10:32:02.659Z,7.70
2018-04-02T10:34:30.997Z,8.20
2018-04-02T10:36:58.610Z,8.20
2018-04-02T10:39:26.991Z,7.90
2018-04-02T10:41:55.363Z,8.10
2018-04-02T10:44:23.755Z,8.30
2018-04-02T10:46:51.324Z,8.30
2018-04-02T10:49:19.038Z,8.20
2018-04-02T10:51:46.662Z,8.50
2018-04-02T10:54:14.257Z,8.20
2018-04-02T10:56:41.822Z,8.50
2018-04-02T10:59:09.419Z,8.60
2018-04-02T11:01:37.017Z,8.70
2018-04-02T11:04:04.629Z,8.50
2018-04-02T11:06:32.964Z,8.60
2018-04-02T11:09:00.542Z,8.60
2018-04-02T11:11:28.136Z,8.60
2018-04-02T11:13:55.720Z,8.60
2018-04-02T11:16:23.318Z,8.70
2018-04-02T11:18:50.889Z,8.90
2018-04-02T11:21:19.290Z,9.10
2018-04-02T11:23:47.695Z,9.80
2018-04-02T11:26:15.335Z,9.80
2018-04-02T11:28:42.939Z,9.30
2018-04-02T11:31:10.511Z,9.80
2018-04-02T11:33:38.127Z,9.30
2018-04-02T11:36:05.766Z,9.20
2018-04-02T11:38:33.352Z,9.30
2018-04-02T11:41:00.947Z,9.60
2018-04-02T11:43:28.555Z,9.60
2018-04-02T11:45:56.141Z,8.80
2018-04-02T11:48:23.753Z,9.30
2018-04-02T11:50:52.115Z,9.90
2018-04-02T11:53:19.735Z,9.90
2018-04-02T11:55:47.316Z,9.80
2018-04-02T11:58:14.919Z,10.10
2018-04-02T12:00:42.499Z,9.40
2018-04-02T12:03:10.085Z,9.60
2018-04-02T12:05:37.708Z,9.70
2018-04-02T12:08:07.178Z,9.70
2018-04-02T12:10:35.545Z,9.80
2018-04-02T12:13:03.130Z,10.00
2018-04-02T12:15:31.494Z,10.30
2018-04-02T12:17:59.077Z,10.30
2018-04-02T12:20:27.443Z,10.10
2018-04-02T12:22:55.802Z,10.40
2018-04-02T12:25:23.430Z,10.40
2018-04-02T12:27:51.020Z,10.40
2018-04-02T12:30:18.611Z,10.40
2018-04-02T12:32:46.207Z,9.50
2018-04-02T12:35:13.784Z,9.20
2018-04-02T12:37:41.382Z,9.40
2018-04-02T12:40:09.740Z,9.00
2018-04-02T12:42:37.341Z,8.90
2018-04-02T12:45:04.916Z,9.20
2018-04-02T12:47:32.568Z,9.40
2018-04-02T12:50:00.172Z,9.80
2018-04-02T12:52:27.778Z,10.00
2018-04-02T12:54:55.404Z,10.00
2018-04-02T12:57:23.839Z,9.30
2018-04-02T12:59:51.426Z,9.20
2018-04-02T13:02:19.012Z,9.60
2018-04-02T13:04:47.385Z,9.60
2018-04-02T13:07:15.752Z,10.10
2018-04-02T13:09:43.372Z,10.10
2018-04-02T13:12:10.959Z,10.10
2018-04-02T13:14:38.596Z,10.40
2018-04-02T13:17:06.215Z,10.50
2018-04-02T13:19:34.638Z,10.90
2018-04-02T13:22:02.259Z,10.90
2018-04-02T13:24:29.847Z,11.10
2018-04-02T13:26:57.444Z,10.90
2018-04-02T13:29:25.048Z,10.60
2018-04-02T13:31:52.651Z,10.70
2018-04-02T13:34:21.002Z,10.90
2018-04-02T13:36:48.606Z,10.90
2018-04-02T13:39:16.219Z,10.70
2018-04-02T13:41:43.831Z,10.80
2018-04-02T13:44:11.428Z,11.00
2018-04-02T13:46:39.035Z,10.80
2018-04-02T13:49:06.645Z,10.70
2018-04-02T13:51:34.228Z,11.00
2018-04-02T13:54:01.908Z,11.00
2018-04-02T13:56:29.485Z,10.40
2018-04-02T13:58:57.116Z,10.00
2018-04-02T14:01:24.695Z,10.70
2018-04-02T14:03:52.306Z,11.00
2018-04-02T14:06:19.944Z,10.90
2018-04-02T14:08:48.329Z,10.60
2018-04-02T14:11:16.674Z,11.20
2018-04-02T14:13:44.275Z,11.20
2018-04-02T14:16:11.900Z,11.20
2018-04-02T14:18:39.502Z,11.00
2018-04-02T14:21:07.119Z,11.00
2018-04-02T14:23:34.732Z,11.10
2018-04-02T14:26:02.345Z,11.10
2018-04-02T14:28:29.978Z,11.50
2018-04-02T14:30:57.607Z,11.20
2018-04-02T14:33:25.210Z,11.30
2018-04-02T14:35:52.844Z,11.20
2018-04-02T14:38:20.431Z,11.30
2018-04-02T14:40:48.059Z,11.60
2018-04-02T14:43:16.303Z,11.50
2018-04-02T14:45:44.707Z,11.30
2018-04-02T14:48:12.317Z,11.30
2018-04-02T14:50:39.931Z,11.80
2018-04-02T14:53:07.530Z,11.70
2018-04-02T14:55:35.168Z,11.10
2018-04-02T14:58:02.771Z,11.10
2018-04-02T15:00:31.136Z,11.40
2018-04-02T15:02:58.744Z,11.30
2018-04-02T15:05:26.379Z,11.60
2018-04-02T15:07:54.753Z,12.10
2018-04-02T15:10:23.132Z,11.40
2018-04-02T15:12:50.744Z,11.40
2018-04-02T15:15:18.333Z,11.40
2018-04-02T15:17:45.964Z,11.00
2018-04-02T15:20:13.553Z,10.70
2018-04-02T15:22:41.194Z,10.70
2018-04-02T15:25:08.781Z,10.80
2018-04-02T15:27:36.379Z,10.90
2018-04-02T15:30:04.037Z,10.70
2018-04-02T15:32:31.612Z,10.80
2018-04-02T15:34:59.263Z,11.30
2018-04-02T15:37:26.864Z,11.40
2018-04-02T15:39:54.496Z,11.60
2018-04-02T15:42:22.099Z,11.60
2018-04-02T15:44:49.708Z,11.60
2018-04-02T15:47:17.313Z,12.80
2018-04-02T15:49:44.920Z,13.00
2018-04-02T15:52:12.528Z,13.70
2018-04-02T15:54:40.114Z,14.50
2018-04-02T15:57:08.489Z,14.20
2018-04-02T15:59:36.863Z,14.10
2018-04-02T16:02:05.254Z,14.50
2018-04-02T16:04:32.862Z,14.50
2018-04-02T16:07:00.482Z,14.70
2018-04-02T16:09:28.089Z,14.70
2018-04-02T16:11:55.697Z,14.60
2018-04-02T16:14:23.281Z,14.30
2018-04-02T16:16:51.744Z,14.30
2018-04-02T16:19:19.326Z,14.20
2018-04-02T16:21:46.913Z,14.00
2018-04-02T16:24:14.516Z,13.90
2018-04-02T16:26:42.876Z,13.60
2018-04-02T16:29:11.250Z,13.40
2018-04-02T16:31:39.609Z,13.20
2018-04-02T16:34:07.210Z,13.10
2018-04-02T16:36:34.815Z,13.00
2018-04-02T16:39:02.518Z,12.80
2018-04-02T16:41:30.860Z,12.40
2018-04-02T16:43:58.498Z,12.40
2018-04-02T16:46:26.085Z,12.20
2018-04-02T16:48:53.669Z,12.00
2018-04-02T16:51:22.068Z,11.60
2018-04-02T16:53:49.692Z,11.60
2018-04-02T16:56:17.317Z,11.50
2018-04-02T16:58:44.931Z,11.30
2018-04-02T17:01:13.304Z,11.20
2018-04-02T17:03:41.668Z,11.20
2018-04-02T17:06:09.320Z,11.20
2018-04-02T17:08:36.878Z,11.10
2018-04-02T17:11:04.504Z,11.00
2018-04-02T17:13:32.218Z,10.80
2018-04-02T17:16:00.575Z,10.70
2018-04-02T17:18:28.176Z,10.70
2018-04-02T17:20:56.523Z,10.60
2018-04-02T17:23:25.071Z,10.50
2018-04-02T17:25:52.655Z,10.50
2018-04-02T17:28:20.276Z,10.40
2018-04-02T17:30:47.876Z,10.20
2018-04-02T17:33:15.514Z,10.10
2018-04-02T17:35:43.108Z,9.90
2018-04-02T17:38:10.691Z,9.80
2018-04-02T17:40:39.070Z,9.60
2018-04-02T17:43:07.430Z,9.50
2018-04-02T17:45:35.042Z,9.50
2018-04-02T17:48:02.627Z,9.40
2018-04-02T17:50:30.237Z,9.40
2018-04-02T17:52:57.833Z,9.30
2018-04-02T17:55:25.460Z,9.30
2018-04-02T17:57:53.040Z,9.20
2018-04-02T18:00:20.650Z,9.20
2018-04-02T18:02:49.062Z,9.10
2018-04-02T18:05:16.658Z,9.10
2018-04-02T18:07:44.346Z,9.10
2018-04-02T18:10:11.894Z,9.00
2018-04-02T18:12:39.540Z,8.90
2018-04-02T18:15:07.143Z,8.80
2018-04-02T18:17:35.536Z,8.70
2018-04-02T18:20:03.215Z,8.70
2018-04-02T18:22:30.829Z,8.70
2018-04-02T18:24:58.444Z,8.60
2018-04-02T18:27:26.041Z,8.60
2018-04-02T18:29:53.633Z,8.50
2018-04-02T18:32:22.020Z,8.50
2018-04-02T18:34:49.627Z,8.50
2018-04-02T18:37:17.262Z,8.40
2018-04-02T18:39:44.837Z,8.40
2018-04-02T18:42:12.459Z,8.30
2018-04-02T18:44:40.038Z,8.30
2018-04-02T18:47:07.684Z,8.30
2018-04-02T18:49:35.267Z,8.20
2018-04-02T18:52:03.000Z,8.10
2018-04-02T18:54:30.582Z,8.10
2018-04-02T18:56:58.211Z,8.00
2018-04-02T18:59:25.788Z,8.00
2018-04-02T19:01:53.404Z,7.90
2018-04-02T19:04:21.002Z,7.90
2018-04-02T19:06:48.590Z,7.80
2018-04-02T19:09:16.984Z,7.70
2018-04-02T19:11:44.565Z,7.70
2018-04-02T19:14:12.161Z,7.70
2018-04-02T19:16:39.755Z,7.60
2018-04-02T19:19:07.397Z,7.60
2018-04-02T19:21:35.000Z,7.60
2018-04-02T19:24:02.597Z,7.60
2018-04-02T19:26:30.175Z,7.50
2018-04-02T19:28:57.791Z,7.40
2018-04-02T19:31:26.147Z,7.40
2018-04-02T19:33:53.758Z,7.40
2018-04-02T19:36:21.365Z,7.30
2018-04-02T19:38:49.125Z,7.30
2018-04-02T19:41:16.744Z,7.20
2018-04-02T19:43:44.345Z,7.20
2018-04-02T19:46:11.951Z,7.20
2018-04-02T19:48:39.528Z,7.20
2018-04-02T19:51:07.199Z,7.10
2018-04-02T19:53:34.785Z,7.10
2018-04-02T19:56:02.401Z,7.10
2018-04-02T19:58:29.979Z,7.10
2018-04-02T20:00:57.568Z,7.00
2018-04-02T20:03:25.169Z,7.00
2018-04-02T20:05:52.779Z,6.90
2018-04-02T20:08:20.382Z,6.90
2018-04-02T20:10:48.729Z,6.90
2018-04-02T20:13:16.332Z,6.90
2018-04-02T20:15:43.932Z,6.90
2018-04-02T20:18:11.537Z,6.90
2018-04-02T20:20:39.168Z,6.90
2018-04-02T20:23:06.821Z,6.80
2018-04-02T20:25:34.374Z,6.80
2018-04-02T20:28:01.953Z,6.70
2018-04-02T20:30:29.562Z,6.70
2018-04-02T20:32:57.159Z,6.70
2018-04-02T20:35:24.768Z,6.60
2018-04-02T20:37:52.364Z,6.60
2018-04-02T20:40:19.975Z,6.60
2018-04-02T20:42:48.332Z,6.60
2018-04-02T20:45:15.940Z,6.60
2018-04-02T20:47:43.552Z,6.60
2018-04-02T20:50:11.145Z,6.60
2018-04-02T20:52:38.739Z,6.60
2018-04-02T20:55:06.319Z,6.60
2018-04-02T20:57:33.926Z,6.60
2018-04-02T21:00:01.536Z,6.60
2018-04-02T21:02:29.157Z,6.50
2018-04-02T21:04:56.749Z,6.50
2018-04-02T21:07:24.373Z,6.40
2018-04-02T21:09:51.983Z,6.40
2018-04-02T21:12:20.560Z,6.40
2018-04-02T21:14:48.136Z,6.40
2018-04-02T21:17:15.724Z,6.30
2018-04-02T21:19:44.142Z,6.30
2018-04-02T21:22:11.758Z,6.20
2018-04-02T21:24:40.199Z,6.30
2018-04-02T21:27:07.799Z,6.20
2018-04-02T21:29:36.168Z,6.30
2018-04-02T21:32:04.551Z,6.40
2018-04-02T21:34:32.944Z,6.40
2018-04-02T21:37:00.542Z,6.30
2018-04-02T21:39:28.169Z,6.40
2018-04-02T21:41:56.535Z,6.30
2018-04-02T21:44:24.157Z,6.30
2018-04-02T21:46:51.759Z,6.20
2018-04-02T21:49:19.339Z,6.20
2018-04-02T21:51:46.936Z,6.20
2018-04-02T21:54:14.508Z,6.20
2018-04-02T21:56:42.127Z,6.10
2018-04-02T21:59:09.735Z,6.10
2018-04-02T22:01:38.131Z,6.00
2018-04-02T22:04:05.703Z,6.00
2018-04-02T22:06:45.191Z,6.00
2018-04-02T22:09:12.773Z,6.00
2018-04-02T22:11:41.126Z,5.90
2018-04-02T22:14:08.727Z,5.90
2018-04-02T22:16:36.324Z,5.90
2018-04-02T22:19:03.940Z,5.90
2018-04-02T22:21:32.299Z,5.80
2018-04-02T22:24:00.671Z,5.80
2018-04-02T22:26:28.281Z,5.80
2018-04-02T22:28:55.909Z,5.80
2018-04-02T22:31:24.256Z,5.80
2018-04-02T22:33:51.898Z,5.80
2018-04-02T22:36:19.500Z,5.80
2018-04-02T22:38:47.864Z,5.80
2018-04-02T22:41:15.463Z,5.80
2018-04-02T22:43:43.059Z,5.80
2018-04-02T22:46:10.664Z,5.70
2018-04-02T22:48:39.035Z,5.80
2018-04-02T22:51:07.459Z,5.80
2018-04-02T22:53:35.059Z,5.80
2018-04-02T22:56:02.678Z,5.80
2018-04-02T22:58:30.255Z,5.90
2018-04-02T23:00:57.857Z,5.90
2018-04-02T23:03:26.221Z,5.90
2018-04-02T23:05:53.818Z,5.90
2018-04-02T23:08:21.385Z,5.90
2018-04-02T23:10:48.984Z,5.90
2018-04-02T23:13:16.580Z,6.00
2018-04-02T23:15:44.963Z,5.90
2018-04-02T23:18:13.323Z,5.90
2018-04-02T23:20:41.704Z,5.90
2018-04-02T23:23:10.059Z,5.90
2018-04-02T23:25:37.659Z,5.90
2018-04-02T23:28:05.284Z,5.80
2018-04-02T23:30:32.875Z,5.90
2018-04-02T23:33:01.245Z,5.90
2018-04-02T23:35:29.581Z,5.90
2018-04-02T23:37:57.196Z,5.90
2018-04-02T23:40:24.767Z,5.90
2018-04-02T23:42:52.375Z,5.90
2018-04-02T23:45:19.957Z,5.90
2018-04-02T23:47:48.345Z,5.90
2018-04-02T23:50:16.703Z,5.90
2018-04-02T23:52:45.071Z,5.90
2018-04-02T23:55:12.695Z,5.90
2018-04-02T23:57:40.270Z,5.90
